Time;durP1;ratioP1;P1;durP2;ratioP2;P2;SDS_P1;SDS_P2;PMS_P1;PMS_P2;Temp;Humidity;BMP_temperature;BMP_pressure;BME280_temperature;BME280_humidity;BME280_pressure;Samples;Min_cycle;Max_cycle;Signal;HPM_P1;HPM_P2
2022/01/18 00:01:19;;;;;;;1.38;1.38;;;;;;;;;;5012249;28;20183;-66
2022/01/18 00:03:46;;;;;;;1.43;1.43;;;;;;;;;;5011919;28;20178;-66
2022/01/18 00:06:12;;;;;;;2.40;2.20;;;;;;;;;;5011842;28;20483;-66
2022/01/18 00:08:38;;;;;;;1.77;1.67;;;;;;;;;;5012198;28;20173;-66
2022/01/18 00:11:04;;;;;;;1.35;1.35;;;;;;;;;;5012156;28;20799;-65
2022/01/18 00:13:40;;;;;;;1.70;1.60;;;;;;;;;;5011850;28;20229;-66
2022/01/18 00:18:34;;;;;;;1.40;1.40;;;;;;;;;;5011844;28;20238;-65
2022/01/18 00:23:26;;;;;;;1.20;1.20;;;;;;;;;;5011632;28;20187;-66
2022/01/18 00:25:55;;;;;;;1.35;1.30;;;;;;;;;;5011731;28;20254;-66
2022/01/18 00:28:22;;;;;;;1.13;1.13;;;;;;;;;;5011723;28;20230;-66
2022/01/18 00:36:40;;;;;;;1.33;1.33;;;;;;;;;;5011820;28;20180;-67
2022/01/18 00:39:07;;;;;;;1.20;1.20;;;;;;;;;;5011769;28;20173;-65
2022/01/18 00:41:33;;;;;;;1.40;1.40;;;;;;;;;;5011599;28;20254;-65
2022/01/18 00:43:59;;;;;;;1.40;1.40;;;;;;;;;;5011335;28;20176;-66
2022/01/18 00:46:25;;;;;;;1.20;1.20;;;;;;;;;;5011337;28;20698;-66
2022/01/18 00:48:54;;;;;;;1.65;1.55;;;;;;;;;;5012039;28;20487;-66
2022/01/18 00:51:20;;;;;;;1.25;1.25;;;;;;;;;;5011696;28;20267;-66
2022/01/18 00:53:47;;;;;;;1.40;1.40;;;;;;;;;;5011509;28;20254;-66
2022/01/18 00:58:40;;;;;;;1.67;1.58;;;;;;;;;;5014783;28;20236;-66
2022/01/18 01:01:06;;;;;;;1.30;1.30;;;;;;;;;;5015513;28;20239;-68
2022/01/18 01:03:32;;;;;;;1.00;1.00;;;;;;;;;;5015309;28;20172;-67
2022/01/18 01:05:58;;;;;;;1.30;1.30;;;;;;;;;;5015453;28;20227;-66
2022/01/18 01:08:24;;;;;;;1.40;1.40;;;;;;;;;;5015276;28;20295;-67
2022/01/18 01:10:50;;;;;;;1.23;1.23;;;;;;;;;;5015186;28;20808;-66
2022/01/18 01:13:16;;;;;;;1.20;1.20;;;;;;;;;;5013726;28;20502;-66
2022/01/18 01:18:35;;;;;;;1.13;1.13;;;;;;;;;;5015243;28;20200;-66
2022/01/18 01:34:42;;;;;;;1.50;1.50;;;;;;;;;;5014927;28;20177;-65
2022/01/18 01:45:03;;;;;;;1.20;1.20;;;;;;;;;;5014742;28;20172;-65
2022/01/18 01:47:37;;;;;;;1.35;1.35;;;;;;;;;;5014366;28;20504;-67
2022/01/18 01:50:04;;;;;;;1.45;1.40;;;;;;;;;;5014605;28;20254;-66
2022/01/18 01:52:30;;;;;;;3.28;3.05;;;;;;;;;;5014145;28;20184;-66
2022/01/18 01:54:56;;;;;;;1.45;1.45;;;;;;;;;;5014359;28;20172;-66
2022/01/18 01:57:22;;;;;;;1.40;1.40;;;;;;;;;;5014298;28;20283;-67
2022/01/18 01:59:48;;;;;;;1.50;1.50;;;;;;;;;;5014426;28;20210;-67
2022/01/18 02:02:14;;;;;;;1.35;1.35;;;;;;;;;;5014244;28;20610;-66
2022/01/18 02:04:40;;;;;;;1.20;1.20;;;;;;;;;;5014159;28;20223;-66
2022/01/18 02:07:07;;;;;;;1.52;1.52;;;;;;;;;;5013963;28;20208;-66
2022/01/18 02:09:33;;;;;;;1.33;1.33;;;;;;;;;;5013689;28;20207;-66
2022/01/18 02:12:00;;;;;;;1.53;1.50;;;;;;;;;;5013924;28;20173;-66
2022/01/18 02:14:27;;;;;;;1.15;1.15;;;;;;;;;;5014091;28;20421;-65
2022/01/18 02:22:23;;;;;;;1.33;1.33;;;;;;;;;;5014064;28;20771;-64
2022/01/18 02:24:49;;;;;;;0.93;0.93;;;;;;;;;;5013744;28;20545;-67
2022/01/18 02:27:15;;;;;;;0.93;0.93;;;;;;;;;;5013784;28;20579;-67
2022/01/18 02:29:41;;;;;;;1.40;1.40;;;;;;;;;;5013762;28;20266;-67
2022/01/18 02:32:08;;;;;;;1.30;1.30;;;;;;;;;;5013688;28;20394;-66
2022/01/18 02:34:34;;;;;;;1.20;1.20;;;;;;;;;;5013548;28;20189;-65
2022/01/18 02:37:03;;;;;;;1.42;1.42;;;;;;;;;;5013525;28;20246;-66
2022/01/18 02:39:29;;;;;;;1.35;1.35;;;;;;;;;;5013071;28;20662;-66
2022/01/18 02:42:00;;;;;;;1.50;1.50;;;;;;;;;;5013431;28;20231;-67
2022/01/18 02:44:27;;;;;;;1.20;1.20;;;;;;;;;;5013383;28;20264;-67
2022/01/18 02:46:53;;;;;;;8.73;7.65;;;;;;;;;;5035329;22;20214;-62
2022/01/18 02:49:19;;;;;;;1.75;1.65;;;;;;;;;;5013239;28;20260;-62
2022/01/18 02:51:45;;;;;;;1.50;1.50;;;;;;;;;;5012041;28;20268;-62
2022/01/18 02:54:12;;;;;;;1.58;1.55;;;;;;;;;;5011834;28;20556;-62
2022/01/18 02:56:46;;;;;;;1.15;1.15;;;;;;;;;;5013100;28;20648;-62
2022/01/18 03:04:23;;;;;;;1.35;1.35;;;;;;;;;;4993444;28;20219;-62
2022/01/18 03:06:49;;;;;;;1.77;1.67;;;;;;;;;;4993485;28;20241;-62
2022/01/18 03:09:15;;;;;;;1.20;1.20;;;;;;;;;;4993525;28;20950;-62
2022/01/18 03:11:41;;;;;;;1.47;1.47;;;;;;;;;;4993382;28;20209;-62
2022/01/18 03:14:07;;;;;;;1.50;1.47;;;;;;;;;;4993166;28;20413;-62
2022/01/18 03:16:33;;;;;;;1.23;1.23;;;;;;;;;;4993372;28;20994;-62
2022/01/18 03:18:59;;;;;;;1.88;1.77;;;;;;;;;;4993327;28;20200;-62
2022/01/18 03:21:25;;;;;;;0.90;0.90;;;;;;;;;;4991264;28;20184;-62
2022/01/18 03:24:10;;;;;;;1.40;1.40;;;;;;;;;;4993110;28;20173;-62
2022/01/18 03:28:03;;;;;;;1.63;1.52;;;;;;;;;;4993120;28;20208;-61
2022/01/18 03:29:22;;;;;;;0.90;0.90;;;;;;;;;;4992176;28;20609;-61
2022/01/18 03:31:48;;;;;;;1.10;1.10;;;;;;;;;;4993093;28;20209;-61
2022/01/18 03:34:14;;;;;;;1.10;1.10;;;;;;;;;;4992968;28;20416;-62
2022/01/18 03:36:40;;;;;;;1.03;1.03;;;;;;;;;;4992901;28;20416;-61
2022/01/18 03:39:06;;;;;;;1.17;1.17;;;;;;;;;;4991523;28;20432;-62
2022/01/18 03:41:32;;;;;;;1.20;1.20;;;;;;;;;;4992895;28;20419;-62
2022/01/18 03:43:58;;;;;;;1.10;1.10;;;;;;;;;;4992808;28;20177;-62
2022/01/18 03:46:25;;;;;;;1.23;1.23;;;;;;;;;;4992782;28;20236;-62
2022/01/18 03:48:52;;;;;;;1.35;1.35;;;;;;;;;;4992723;28;20476;-61
2022/01/18 03:51:18;;;;;;;1.40;1.38;;;;;;;;;;4992611;28;20648;-62
2022/01/18 03:53:44;;;;;;;1.33;1.33;;;;;;;;;;4992497;28;20556;-62
2022/01/18 03:56:10;;;;;;;1.80;1.70;;;;;;;;;;4992644;28;20184;-62
2022/01/18 03:58:36;;;;;;;1.33;1.30;;;;;;;;;;4992493;28;20726;-62
2022/01/18 04:01:02;;;;;;;1.60;1.58;;;;;;;;;;4992491;28;20656;-62
2022/01/18 04:03:28;;;;;;;1.00;1.00;;;;;;;;;;4992415;28;20184;-62
2022/01/18 04:05:56;;;;;;;1.30;1.30;;;;;;;;;;4992358;28;20260;-62
2022/01/18 04:08:23;;;;;;;1.50;1.50;;;;;;;;;;4992413;28;20479;-62
2022/01/18 04:10:50;;;;;;;1.20;1.20;;;;;;;;;;4991227;28;20729;-62
2022/01/18 04:13:16;;;;;;;1.30;1.30;;;;;;;;;;4992291;28;20247;-62
2022/01/18 04:15:41;;;;;;;0.90;0.90;;;;;;;;;;4992339;28;20176;-62
2022/01/18 04:26:52;;;;;;;1.15;1.15;;;;;;;;;;4992277;28;20243;-60
2022/01/18 04:28:48;;;;;;;1.48;1.48;;;;;;;;;;4991971;28;20203;-62
2022/01/18 04:31:14;;;;;;;1.27;1.27;;;;;;;;;;4992095;28;20188;-60
2022/01/18 04:33:40;;;;;;;1.47;1.47;;;;;;;;;;4991914;28;20462;-62
2022/01/18 04:36:07;;;;;;;1.07;1.07;;;;;;;;;;4992155;28;20417;-61
2022/01/18 04:38:33;;;;;;;1.50;1.50;;;;;;;;;;4992009;28;20433;-62
2022/01/18 04:41:05;;;;;;;1.25;1.25;;;;;;;;;;4992093;28;20182;-62
2022/01/18 04:44:03;;;;;;;1.50;1.50;;;;;;;;;;4991996;28;20565;-62
2022/01/18 04:49:15;;;;;;;1.85;1.75;;;;;;;;;;4992045;28;20239;-62
2022/01/18 04:51:41;;;;;;;1.90;1.80;;;;;;;;;;4991945;28;20182;-62
2022/01/18 04:54:09;;;;;;;1.40;1.40;;;;;;;;;;4991699;28;20227;-62
2022/01/18 04:59:01;;;;;;;1.30;1.30;;;;;;;;;;4992004;28;20245;-62
2022/01/18 05:01:27;;;;;;;1.13;1.13;;;;;;;;;;4991915;28;20419;-62
2022/01/18 05:03:53;;;;;;;1.40;1.40;;;;;;;;;;4991666;28;20181;-62
2022/01/18 05:06:20;;;;;;;1.27;1.27;;;;;;;;;;4991703;28;20566;-62
2022/01/18 05:08:46;;;;;;;1.40;1.40;;;;;;;;;;4991721;28;20421;-62
2022/01/18 05:11:16;;;;;;;1.10;1.10;;;;;;;;;;4991813;28;20176;-62
2022/01/18 05:16:43;;;;;;;1.20;1.20;;;;;;;;;;4991853;28;20178;-61
2022/01/18 05:19:41;;;;;;;1.30;1.30;;;;;;;;;;4991688;28;20180;-62
2022/01/18 05:24:33;;;;;;;1.30;1.30;;;;;;;;;;4991502;28;20208;-62
2022/01/18 05:27:00;;;;;;;1.00;1.00;;;;;;;;;;4991567;28;20310;-61
2022/01/18 05:29:27;;;;;;;1.20;1.20;;;;;;;;;;4991449;28;20204;-62
2022/01/18 05:31:53;;;;;;;0.65;0.65;;;;;;;;;;4991662;28;20204;-61
2022/01/18 05:34:19;;;;;;;0.70;0.70;;;;;;;;;;4991370;28;20707;-62
2022/01/18 05:36:45;;;;;;;0.90;0.90;;;;;;;;;;4990267;28;20216;-61
2022/01/18 05:39:11;;;;;;;1.35;1.35;;;;;;;;;;4991536;28;20585;-61
2022/01/18 05:41:39;;;;;;;1.10;1.10;;;;;;;;;;4991611;28;20243;-62
2022/01/18 05:44:05;;;;;;;1.27;1.27;;;;;;;;;;4993040;28;20623;-61
2022/01/18 05:46:31;;;;;;;1.15;1.15;;;;;;;;;;4994901;28;20209;-62
2022/01/18 05:49:00;;;;;;;1.30;1.30;;;;;;;;;;4994813;28;20300;-62
2022/01/18 05:51:26;;;;;;;1.20;1.20;;;;;;;;;;4995025;28;20795;-61
2022/01/18 05:53:52;;;;;;;1.30;1.30;;;;;;;;;;4994648;28;20230;-62
2022/01/18 05:56:18;;;;;;;1.17;1.17;;;;;;;;;;4994713;28;20679;-61
2022/01/18 05:58:45;;;;;;;1.80;1.70;;;;;;;;;;4994744;28;20974;-62
2022/01/18 06:01:21;;;;;;;1.30;1.30;;;;;;;;;;4994851;28;20575;-61
2022/01/18 06:04:05;;;;;;;1.30;1.30;;;;;;;;;;4994676;28;20184;-61
2022/01/18 06:09:15;;;;;;;1.10;1.10;;;;;;;;;;4994597;28;20234;-62
2022/01/18 06:11:41;;;;;;;1.20;1.20;;;;;;;;;;4994506;28;20552;-62
2022/01/18 06:14:07;;;;;;;1.20;1.20;;;;;;;;;;4994250;28;20415;-62
2022/01/18 06:16:33;;;;;;;1.08;1.08;;;;;;;;;;4994492;28;20412;-61
2022/01/18 06:18:59;;;;;;;1.10;1.10;;;;;;;;;;4994284;28;20208;-62
2022/01/18 06:21:25;;;;;;;1.27;1.27;;;;;;;;;;4994357;28;20420;-62
2022/01/18 06:23:51;;;;;;;1.20;1.20;;;;;;;;;;4993743;28;20436;-62
2022/01/18 06:26:17;;;;;;;1.20;1.20;;;;;;;;;;4991747;28;20480;-62
2022/01/18 06:28:44;;;;;;;1.33;1.33;;;;;;;;;;4994058;28;20447;-62
2022/01/18 06:31:10;;;;;;;1.10;1.10;;;;;;;;;;4993909;28;20260;-62
2022/01/18 06:33:36;;;;;;;1.05;1.05;;;;;;;;;;4994066;28;20333;-62
2022/01/18 06:36:02;;;;;;;1.35;1.35;;;;;;;;;;4993812;28;20219;-62
2022/01/18 06:38:28;;;;;;;1.10;1.10;;;;;;;;;;4993746;28;20691;-62
2022/01/18 06:40:54;;;;;;;1.10;1.10;;;;;;;;;;4992575;28;20188;-61
2022/01/18 06:43:20;;;;;;;1.27;1.27;;;;;;;;;;4993208;28;20482;-62
2022/01/18 06:45:46;;;;;;;1.30;1.30;;;;;;;;;;4993065;28;20197;-60
2022/01/18 06:48:12;;;;;;;1.15;1.15;;;;;;;;;;4992150;28;20465;-62
2022/01/18 06:50:38;;;;;;;1.33;1.33;;;;;;;;;;4993319;28;20176;-61
2022/01/18 06:53:05;;;;;;;1.63;1.60;;;;;;;;;;4987094;28;20270;-61
2022/01/18 06:55:31;;;;;;;1.35;1.35;;;;;;;;;;4992285;28;20490;-60
2022/01/18 06:57:57;;;;;;;1.45;1.45;;;;;;;;;;4993088;28;20192;-61
2022/01/18 07:00:23;;;;;;;1.20;1.20;;;;;;;;;;4993565;28;20615;-61
2022/01/18 07:02:49;;;;;;;1.25;1.25;;;;;;;;;;4993085;28;20504;-61
2022/01/18 07:05:15;;;;;;;1.37;1.37;;;;;;;;;;4993413;28;20222;-61
2022/01/18 07:07:42;;;;;;;1.03;1.03;;;;;;;;;;4993579;28;20657;-61
2022/01/18 07:10:08;;;;;;;1.10;1.10;;;;;;;;;;4993511;28;20773;-61
2022/01/18 07:12:35;;;;;;;1.83;1.73;;;;;;;;;;4993107;28;20647;-62
2022/01/18 07:15:07;;;;;;;1.02;1.02;;;;;;;;;;4993364;28;20227;-61
2022/01/18 07:17:34;;;;;;;1.05;1.05;;;;;;;;;;4993072;28;20203;-61
2022/01/18 07:20:00;;;;;;;1.45;1.45;;;;;;;;;;4993464;28;20227;-62
2022/01/18 07:22:26;;;;;;;1.37;1.37;;;;;;;;;;4992943;28;20612;-62
2022/01/18 07:24:56;;;;;;;1.70;1.60;;;;;;;;;;4993187;28;20439;-62
2022/01/18 07:27:23;;;;;;;1.50;1.50;;;;;;;;;;4992720;28;20474;-62
2022/01/18 07:29:49;;;;;;;1.42;1.42;;;;;;;;;;4993251;28;20521;-62
2022/01/18 07:32:15;;;;;;;1.42;1.42;;;;;;;;;;4991700;28;20298;-62
2022/01/18 07:34:49;;;;;;;1.17;1.17;;;;;;;;;;4992837;28;20629;-62
2022/01/18 07:37:15;;;;;;;1.20;1.20;;;;;;;;;;4992993;28;20289;-62
2022/01/18 07:39:41;;;;;;;1.23;1.23;;;;;;;;;;4993060;28;20213;-62
2022/01/18 07:42:07;;;;;;;1.25;1.25;;;;;;;;;;4993065;28;20844;-62
2022/01/18 07:44:33;;;;;;;1.50;1.50;;;;;;;;;;4992701;28;20220;-62
2022/01/18 07:46:59;;;;;;;1.63;1.60;;;;;;;;;;4992045;28;21572;-62
2022/01/18 07:49:25;;;;;;;1.67;1.57;;;;;;;;;;4992970;28;20203;-62
2022/01/18 07:51:52;;;;;;;1.38;1.38;;;;;;;;;;4992879;28;20459;-62
2022/01/18 07:54:18;;;;;;;1.10;1.10;;;;;;;;;;4992228;28;20174;-61
2022/01/18 07:56:44;;;;;;;1.45;1.45;;;;;;;;;;4992388;28;20184;-62
2022/01/18 07:59:11;;;;;;;1.10;1.10;;;;;;;;;;4992599;28;20645;-62
2022/01/18 08:01:37;;;;;;;1.65;1.60;;;;;;;;;;4989856;28;20193;-62
2022/01/18 08:04:03;;;;;;;1.80;1.70;;;;;;;;;;4992230;28;20189;-61
2022/01/18 08:06:29;;;;;;;1.07;1.07;;;;;;;;;;4991899;28;20205;-61
2022/01/18 08:08:55;;;;;;;1.37;1.37;;;;;;;;;;4992194;28;20459;-61
2022/01/18 08:11:21;;;;;;;1.50;1.43;;;;;;;;;;4991629;28;20513;-61
2022/01/18 08:13:49;;;;;;;2.50;2.40;;;;;;;;;;4991850;28;20416;-61
2022/01/18 08:18:55;;;;;;;1.48;1.48;;;;;;;;;;4992294;28;20197;-61
2022/01/18 08:21:21;;;;;;;2.10;2.00;;;;;;;;;;4991655;28;20667;-62
2022/01/18 08:23:47;;;;;;;1.75;1.65;;;;;;;;;;4991756;28;20619;-61
2022/01/18 08:26:13;;;;;;;1.50;1.47;;;;;;;;;;4991970;28;20240;-62
2022/01/18 08:28:39;;;;;;;1.30;1.30;;;;;;;;;;4990798;28;20822;-62
2022/01/18 08:31:05;;;;;;;1.77;1.67;;;;;;;;;;4992253;28;20444;-62
2022/01/18 08:33:32;;;;;;;2.17;2.08;;;;;;;;;;4990975;28;20184;-62
2022/01/18 08:35:59;;;;;;;1.40;1.40;;;;;;;;;;4990863;28;20718;-62
2022/01/18 08:38:26;;;;;;;1.50;1.50;;;;;;;;;;4992032;28;20197;-61
2022/01/18 08:40:52;;;;;;;1.40;1.40;;;;;;;;;;4991964;28;20644;-62
2022/01/18 08:43:18;;;;;;;1.20;1.20;;;;;;;;;;4990497;28;20187;-62
2022/01/18 08:45:44;;;;;;;1.90;1.80;;;;;;;;;;4991790;28;20295;-62
2022/01/18 08:48:10;;;;;;;1.52;1.52;;;;;;;;;;4993027;28;20876;-62
2022/01/18 08:50:36;;;;;;;1.50;1.50;;;;;;;;;;4991911;28;20197;-62
2022/01/18 08:53:02;;;;;;;1.80;1.70;;;;;;;;;;4991610;28;20416;-62
2022/01/18 08:55:29;;;;;;;1.45;1.42;;;;;;;;;;4991167;28;20441;-62
2022/01/18 08:57:55;;;;;;;1.85;1.75;;;;;;;;;;4992077;28;20216;-62
2022/01/18 09:00:21;;;;;;;1.23;1.23;;;;;;;;;;4991946;28;20186;-62
2022/01/18 09:02:48;;;;;;;1.30;1.30;;;;;;;;;;4991757;28;20181;-62
2022/01/18 09:05:14;;;;;;;1.55;1.55;;;;;;;;;;4991584;28;20185;-62
2022/01/18 09:07:40;;;;;;;1.38;1.38;;;;;;;;;;4991700;28;20223;-62
2022/01/18 09:10:09;;;;;;;1.10;1.10;;;;;;;;;;4992244;28;20214;-62
2022/01/18 09:12:35;;;;;;;1.50;1.50;;;;;;;;;;4991573;28;20232;-62
2022/01/18 09:15:02;;;;;;;1.30;1.30;;;;;;;;;;4992034;28;20173;-62
2022/01/18 09:17:28;;;;;;;1.35;1.35;;;;;;;;;;4991693;28;20464;-62
2022/01/18 09:19:54;;;;;;;1.30;1.30;;;;;;;;;;5010223;28;20178;-62
2022/01/18 09:22:20;;;;;;;1.23;1.23;;;;;;;;;;4995355;28;20637;-61
2022/01/18 09:24:46;;;;;;;1.20;1.20;;;;;;;;;;4995321;28;20263;-62
2022/01/18 09:27:12;;;;;;;1.00;1.00;;;;;;;;;;4995337;28;20654;-62
2022/01/18 09:29:40;;;;;;;1.73;1.63;;;;;;;;;;4995170;28;20490;-62
2022/01/18 09:32:06;;;;;;;1.30;1.30;;;;;;;;;;4995362;28;20408;-62
2022/01/18 09:34:33;;;;;;;1.30;1.30;;;;;;;;;;4995136;28;20175;-62
2022/01/18 09:36:59;;;;;;;1.75;1.65;;;;;;;;;;4995171;28;20183;-62
2022/01/18 09:39:26;;;;;;;1.03;1.03;;;;;;;;;;4995241;28;20178;-62
2022/01/18 09:41:52;;;;;;;1.90;1.80;;;;;;;;;;4995062;28;20544;-62
2022/01/18 09:44:19;;;;;;;1.30;1.30;;;;;;;;;;4995004;28;20194;-62
2022/01/18 09:46:45;;;;;;;1.70;1.60;;;;;;;;;;4993674;28;20641;-62
2022/01/18 09:49:12;;;;;;;1.30;1.30;;;;;;;;;;4994833;28;20340;-62
2022/01/18 09:51:38;;;;;;;1.40;1.40;;;;;;;;;;4994918;28;20653;-62
2022/01/18 09:54:04;;;;;;;1.40;1.40;;;;;;;;;;4994677;28;20179;-62
2022/01/18 09:56:30;;;;;;;1.17;1.17;;;;;;;;;;4994790;28;20181;-62
2022/01/18 09:58:56;;;;;;;1.37;1.37;;;;;;;;;;4994731;28;20523;-61
2022/01/18 10:01:22;;;;;;;1.63;1.60;;;;;;;;;;4994863;28;20404;-62
2022/01/18 10:03:48;;;;;;;1.37;1.37;;;;;;;;;;4994401;28;20649;-62
2022/01/18 10:06:17;;;;;;;1.10;1.10;;;;;;;;;;4994586;28;20441;-62
2022/01/18 10:08:48;;;;;;;1.42;1.42;;;;;;;;;;4994505;28;20192;-62
2022/01/18 10:11:16;;;;;;;1.00;1.00;;;;;;;;;;4994735;28;20751;-62
2022/01/18 10:13:42;;;;;;;1.10;1.10;;;;;;;;;;4994893;28;20190;-62
2022/01/18 10:16:15;;;;;;;1.40;1.40;;;;;;;;;;4994655;28;20209;-61
2022/01/18 10:18:46;;;;;;;1.60;1.60;;;;;;;;;;4994415;28;20202;-62
2022/01/18 10:21:15;;;;;;;1.27;1.27;;;;;;;;;;4992703;28;20628;-62
2022/01/18 10:23:48;;;;;;;1.25;1.25;;;;;;;;;;4994234;28;20569;-62
2022/01/18 10:26:16;;;;;;;1.38;1.38;;;;;;;;;;4994311;28;20217;-60
2022/01/18 10:28:42;;;;;;;1.10;1.10;;;;;;;;;;4993986;28;20626;-61
2022/01/18 10:31:29;;;;;;;1.40;1.40;;;;;;;;;;4994170;28;20185;-62
2022/01/18 10:34:12;;;;;;;1.02;1.02;;;;;;;;;;4994097;28;20225;-62
2022/01/18 10:36:51;;;;;;;1.30;1.30;;;;;;;;;;4994453;28;20723;-62
2022/01/18 10:39:21;;;;;;;2.08;1.98;;;;;;;;;;4994140;28;20314;-62
2022/01/18 10:41:47;;;;;;;1.15;1.15;;;;;;;;;;4994120;28;20169;-62
2022/01/18 10:44:14;;;;;;;1.27;1.27;;;;;;;;;;4993823;28;20236;-62
2022/01/18 10:46:42;;;;;;;1.52;1.50;;;;;;;;;;4993898;28;20457;-62
2022/01/18 10:49:09;;;;;;;1.17;1.17;;;;;;;;;;4993949;28;20269;-59
2022/01/18 10:51:37;;;;;;;1.17;1.17;;;;;;;;;;4993835;28;20181;-61
2022/01/18 10:54:05;;;;;;;1.17;1.17;;;;;;;;;;4993557;28;20224;-62
2022/01/18 10:56:41;;;;;;;1.10;1.10;;;;;;;;;;4993895;28;20704;-62
2022/01/18 10:59:08;;;;;;;1.30;1.30;;;;;;;;;;4993824;28;20665;-62
2022/01/18 11:01:34;;;;;;;1.25;1.25;;;;;;;;;;4993819;28;20541;-62
2022/01/18 11:04:07;;;;;;;1.10;1.10;;;;;;;;;;4993568;28;20181;-62
2022/01/18 11:06:34;;;;;;;1.20;1.20;;;;;;;;;;4993518;28;20569;-62
2022/01/18 11:09:13;;;;;;;0.95;0.95;;;;;;;;;;4993551;28;20233;-62
2022/01/18 11:11:43;;;;;;;0.90;0.90;;;;;;;;;;4993522;28;20341;-62
2022/01/18 11:14:11;;;;;;;1.38;1.38;;;;;;;;;;4993317;28;20173;-62
2022/01/18 11:16:41;;;;;;;1.23;1.23;;;;;;;;;;4993467;28;20179;-62
2022/01/18 11:19:27;;;;;;;1.40;1.40;;;;;;;;;;4993413;28;20182;-62
2022/01/18 11:21:54;;;;;;;1.20;1.20;;;;;;;;;;4993281;28;20181;-62
2022/01/18 11:24:21;;;;;;;1.20;1.20;;;;;;;;;;4993126;28;20557;-62
2022/01/18 11:26:47;;;;;;;1.40;1.30;;;;;;;;;;4993241;28;20569;-62
2022/01/18 11:29:18;;;;;;;1.17;1.17;;;;;;;;;;4993339;28;20194;-63
2022/01/18 11:31:45;;;;;;;1.83;1.80;;;;;;;;;;4992762;28;20184;-63
2022/01/18 11:34:13;;;;;;;1.03;1.03;;;;;;;;;;4993103;28;20431;-63
2022/01/18 11:36:44;;;;;;;0.95;0.95;;;;;;;;;;4993198;28;20966;-63
2022/01/18 11:39:12;;;;;;;1.30;1.30;;;;;;;;;;4992757;28;20721;-63
2022/01/18 11:41:38;;;;;;;1.02;1.02;;;;;;;;;;4992517;28;20232;-63
2022/01/18 11:44:13;;;;;;;1.00;1.00;;;;;;;;;;4992620;28;20182;-62
2022/01/18 11:46:44;;;;;;;1.33;1.33;;;;;;;;;;4992774;28;20220;-62
2022/01/18 11:49:14;;;;;;;1.42;1.42;;;;;;;;;;4992744;28;20182;-62
2022/01/18 11:51:48;;;;;;;1.25;1.25;;;;;;;;;;4992920;28;20216;-62
2022/01/18 11:54:20;;;;;;;1.60;1.60;;;;;;;;;;4992694;28;20185;-62
2022/01/18 11:56:46;;;;;;;1.50;1.50;;;;;;;;;;4992850;28;20185;-63
2022/01/18 11:59:14;;;;;;;1.35;1.35;;;;;;;;;;4992774;28;20198;-62
2022/01/18 12:02:00;;;;;;;0.98;0.98;;;;;;;;;;4992615;28;20178;-62
2022/01/18 12:04:53;;;;;;;1.08;1.08;;;;;;;;;;4992211;28;20329;-63
2022/01/18 12:07:36;;;;;;;1.27;1.27;;;;;;;;;;4992572;28;20214;-63
2022/01/18 12:10:05;;;;;;;1.17;1.17;;;;;;;;;;4992574;28;20401;-63
2022/01/18 12:12:40;;;;;;;1.77;1.67;;;;;;;;;;4992180;28;20210;-63
2022/01/18 12:15:16;;;;;;;1.20;1.20;;;;;;;;;;4992306;28;20172;-63
2022/01/18 12:17:49;;;;;;;1.80;1.80;;;;;;;;;;4989653;28;20636;-63
2022/01/18 12:20:34;;;;;;;1.50;1.50;;;;;;;;;;4991840;28;20170;-63
2022/01/18 12:23:00;;;;;;;1.00;1.00;;;;;;;;;;4992044;28;20399;-63
2022/01/18 12:25:26;;;;;;;1.00;1.00;;;;;;;;;;4992287;28;20333;-63
2022/01/18 12:27:55;;;;;;;1.30;1.30;;;;;;;;;;4992110;28;20853;-63
2022/01/18 12:31:05;;;;;;;1.30;1.30;;;;;;;;;;4991928;28;20306;-63
2022/01/18 12:33:17;;;;;;;1.30;1.30;;;;;;;;;;4990464;28;20218;-61
2022/01/18 12:35:43;;;;;;;1.15;1.15;;;;;;;;;;4992349;28;20178;-62
2022/01/18 12:38:12;;;;;;;1.30;1.30;;;;;;;;;;4991956;28;20212;-61
2022/01/18 12:40:43;;;;;;;1.67;1.67;;;;;;;;;;4991873;28;20810;-62
2022/01/18 12:45:38;;;;;;;1.20;1.20;;;;;;;;;;4991776;28;20246;-62
2022/01/18 12:48:05;;;;;;;1.50;1.50;;;;;;;;;;4991722;28;20202;-62
2022/01/18 12:50:31;;;;;;;1.40;1.40;;;;;;;;;;4991948;28;20188;-62
2022/01/18 12:52:59;;;;;;;1.93;1.87;;;;;;;;;;4991844;28;20178;-62
2022/01/18 12:55:33;;;;;;;1.35;1.35;;;;;;;;;;4995938;28;20936;-61
2022/01/18 12:58:06;;;;;;;1.30;1.30;;;;;;;;;;4995947;28;20205;-62
2022/01/18 13:00:36;;;;;;;1.23;1.23;;;;;;;;;;4995953;28;20609;-62
2022/01/18 13:03:02;;;;;;;1.30;1.30;;;;;;;;;;4995755;28;20545;-62
2022/01/18 13:05:35;;;;;;;1.10;1.10;;;;;;;;;;4995864;28;20174;-62
2022/01/18 13:08:03;;;;;;;1.40;1.40;;;;;;;;;;4995848;28;20452;-63
2022/01/18 13:10:40;;;;;;;1.30;1.30;;;;;;;;;;4995881;28;20548;-60
2022/01/18 13:13:06;;;;;;;1.00;1.00;;;;;;;;;;4995525;28;20170;-62
2022/01/18 13:15:51;;;;;;;1.40;1.40;;;;;;;;;;4995644;28;20649;-62
2022/01/18 13:23:57;;;;;;;1.30;1.30;;;;;;;;;;4995675;28;20207;-60
2022/01/18 13:26:40;;;;;;;1.55;1.55;;;;;;;;;;4995887;28;20638;-60
2022/01/18 13:29:11;;;;;;;1.42;1.42;;;;;;;;;;4995491;28;20225;-62
2022/01/18 13:31:37;;;;;;;1.50;1.50;;;;;;;;;;4995324;28;20788;-62
2022/01/18 13:34:04;;;;;;;1.30;1.30;;;;;;;;;;4995019;28;20213;-61
2022/01/18 13:36:32;;;;;;;1.40;1.40;;;;;;;;;;4995262;28;20181;-62
2022/01/18 13:39:18;;;;;;;1.27;1.27;;;;;;;;;;4995186;28;20611;-62
2022/01/18 13:41:44;;;;;;;1.50;1.50;;;;;;;;;;4995076;28;20672;-62
2022/01/18 13:44:10;;;;;;;1.35;1.35;;;;;;;;;;4994858;28;20189;-60
2022/01/18 13:46:36;;;;;;;1.60;1.60;;;;;;;;;;4995080;28;20198;-62
2022/01/18 13:49:05;;;;;;;1.73;1.73;;;;;;;;;;4994688;28;20466;-62
2022/01/18 13:51:31;;;;;;;1.10;1.10;;;;;;;;;;4995004;28;20409;-61
2022/01/18 13:54:04;;;;;;;1.23;1.23;;;;;;;;;;4994757;28;20181;-61
2022/01/18 13:56:30;;;;;;;1.40;1.40;;;;;;;;;;4994910;28;21044;-62
2022/01/18 13:59:01;;;;;;;1.40;1.40;;;;;;;;;;4994823;28;20234;-62
2022/01/18 14:01:28;;;;;;;1.50;1.50;;;;;;;;;;4994611;28;20413;-62
2022/01/18 14:04:02;;;;;;;1.10;1.10;;;;;;;;;;4994221;28;20182;-62
2022/01/18 14:06:36;;;;;;;1.40;1.40;;;;;;;;;;4994764;28;20200;-62
2022/01/18 14:09:02;;;;;;;1.35;1.35;;;;;;;;;;4994621;28;20251;-62
2022/01/18 14:11:31;;;;;;;1.63;1.63;;;;;;;;;;4994670;28;20179;-62
2022/01/18 14:13:57;;;;;;;1.40;1.40;;;;;;;;;;4994106;28;20254;-60
2022/01/18 14:16:33;;;;;;;1.45;1.45;;;;;;;;;;4994546;28;20190;-62
2022/01/18 14:19:09;;;;;;;1.67;1.67;;;;;;;;;;4994526;28;20198;-62
2022/01/18 14:21:43;;;;;;;1.20;1.20;;;;;;;;;;4994556;28;20185;-62
2022/01/18 14:24:11;;;;;;;2.00;1.90;;;;;;;;;;4994294;28;20185;-62
2022/01/18 14:26:37;;;;;;;1.25;1.25;;;;;;;;;;4994213;28;20198;-62
2022/01/18 14:29:04;;;;;;;1.40;1.40;;;;;;;;;;4999010;28;20268;-62
2022/01/18 14:31:30;;;;;;;1.10;1.10;;;;;;;;;;4996005;28;20178;-62
2022/01/18 14:33:56;;;;;;;1.10;1.10;;;;;;;;;;4994035;28;20174;-62
2022/01/18 14:36:22;;;;;;;1.80;1.70;;;;;;;;;;5004597;28;20520;-62
2022/01/18 14:38:48;;;;;;;1.27;1.27;;;;;;;;;;5013536;28;20276;-62
2022/01/18 14:41:21;;;;;;;1.53;1.53;;;;;;;;;;5013689;28;20413;-60
2022/01/18 14:43:47;;;;;;;1.30;1.30;;;;;;;;;;5013546;28;20489;-61
2022/01/18 14:46:37;;;;;;;1.38;1.38;;;;;;;;;;5007274;28;20296;-62
2022/01/18 14:49:03;;;;;;;1.58;1.58;;;;;;;;;;5037159;22;20229;-65
2022/01/18 14:51:29;;;;;;;2.00;1.90;;;;;;;;;;5011269;28;20231;-65
2022/01/18 14:53:55;;;;;;;2.22;2.13;;;;;;;;;;5011330;28;20671;-65
2022/01/18 14:56:21;;;;;;;1.75;1.70;;;;;;;;;;5022188;28;20219;-65
2022/01/18 14:58:47;;;;;;;1.20;1.20;;;;;;;;;;5032967;28;20207;-65
2022/01/18 15:01:13;;;;;;;1.50;1.50;;;;;;;;;;5032421;28;20437;-65
2022/01/18 15:03:39;;;;;;;2.33;2.22;;;;;;;;;;5032572;28;20411;-65
2022/01/18 15:06:05;;;;;;;1.53;1.53;;;;;;;;;;5032563;28;20207;-65
2022/01/18 15:08:31;;;;;;;1.70;1.67;;;;;;;;;;5032664;28;20450;-65
2022/01/18 15:10:57;;;;;;;1.90;1.90;;;;;;;;;;5031313;28;20426;-65
2022/01/18 15:13:23;;;;;;;1.25;1.25;;;;;;;;;;5032444;28;20439;-65
2022/01/18 15:15:49;;;;;;;1.53;1.53;;;;;;;;;;5031470;28;20662;-63
2022/01/18 15:18:15;;;;;;;1.40;1.40;;;;;;;;;;5019169;28;20432;-65
2022/01/18 15:20:41;;;;;;;1.50;1.50;;;;;;;;;;5012397;28;20185;-65
2022/01/18 15:23:07;;;;;;;1.57;1.57;;;;;;;;;;5012364;28;20427;-64
2022/01/18 15:25:33;;;;;;;1.88;1.88;;;;;;;;;;5012364;28;20409;-64
2022/01/18 15:27:59;;;;;;;1.45;1.45;;;;;;;;;;5012385;28;20548;-65
2022/01/18 15:30:27;;;;;;;1.50;1.50;;;;;;;;;;5012482;28;20171;-65
2022/01/18 15:32:55;;;;;;;1.55;1.55;;;;;;;;;;5011938;28;20439;-65
2022/01/18 15:35:21;;;;;;;1.92;1.83;;;;;;;;;;5012327;28;20259;-65
2022/01/18 15:37:47;;;;;;;1.27;1.27;;;;;;;;;;5012087;28;20645;-65
2022/01/18 15:40:13;;;;;;;1.55;1.55;;;;;;;;;;5012424;28;20884;-65
2022/01/18 15:42:40;;;;;;;2.45;2.35;;;;;;;;;;5012249;28;20188;-65
2022/01/18 15:45:07;;;;;;;1.92;1.88;;;;;;;;;;5011924;28;20196;-65
2022/01/18 15:47:33;;;;;;;1.83;1.83;;;;;;;;;;5011641;28;20727;-65
2022/01/18 15:49:59;;;;;;;2.20;2.10;;;;;;;;;;5011887;28;20176;-66
2022/01/18 15:52:25;;;;;;;1.65;1.65;;;;;;;;;;5012063;28;20423;-66
2022/01/18 15:54:52;;;;;;;1.65;1.65;;;;;;;;;;5011930;28;20165;-65
2022/01/18 15:57:19;;;;;;;1.40;1.40;;;;;;;;;;5011994;28;20293;-65
2022/01/18 15:59:45;;;;;;;1.65;1.65;;;;;;;;;;5012040;28;20552;-65
2022/01/18 16:02:11;;;;;;;1.70;1.65;;;;;;;;;;5012042;28;20241;-65
2022/01/18 16:04:37;;;;;;;1.55;1.55;;;;;;;;;;5011708;28;20180;-65
2022/01/18 16:07:06;;;;;;;1.48;1.48;;;;;;;;;;5012035;28;20623;-65
2022/01/18 16:09:32;;;;;;;1.30;1.30;;;;;;;;;;5010806;28;20199;-65